sensor_id;sensor_type;location;lat;lon;timestamp;pressure;altitude;pressure_sealevel;temperature;humidity
64886;BME280;51514;52.206;5.114;2023-07-09T00:02:22;101752.28;;;27.32;57.89
64886;BME280;51514;52.206;5.114;2023-07-09T00:04:48;101750.34;;;27.32;57.73
64886;BME280;51514;52.206;5.114;2023-07-09T00:09:42;101751.72;;;27.46;56.73
64886;BME280;51514;52.206;5.114;2023-07-09T00:12:13;101739.09;;;27.39;56.44
64886;BME280;51514;52.206;5.114;2023-07-09T00:14:38;101753.13;;;27.32;56.35
64886;BME280;51514;52.206;5.114;2023-07-09T00:17:09;101755.03;;;27.32;56.32
64886;BME280;51514;52.206;5.114;2023-07-09T00:19:34;101759.97;;;27.30;56.13
64886;BME280;51514;52.206;5.114;2023-07-09T00:22:00;101762.56;;;27.19;56.82
64886;BME280;51514;52.206;5.114;2023-07-09T00:24:25;101760.38;;;27.21;56.15
64886;BME280;51514;52.206;5.114;2023-07-09T00:26:52;101760.88;;;27.18;56.48
64886;BME280;51514;52.206;5.114;2023-07-09T00:29:17;101762.31;;;27.21;56.28
64886;BME280;51514;52.206;5.114;2023-07-09T00:31:43;101766.16;;;27.20;56.52
64886;BME280;51514;52.206;5.114;2023-07-09T00:34:10;101771.94;;;27.18;55.96
64886;BME280;51514;52.206;5.114;2023-07-09T00:36:39;101769.78;;;27.20;57.00
64886;BME280;51514;52.206;5.114;2023-07-09T00:39:19;101767.59;;;27.22;56.68
64886;BME280;51514;52.206;5.114;2023-07-09T00:41:44;101777.34;;;27.25;56.58
64886;BME280;51514;52.206;5.114;2023-07-09T00:44:22;101772.31;;;27.22;56.77
64886;BME280;51514;52.206;5.114;2023-07-09T00:51:56;101779.66;;;27.16;56.68
64886;BME280;51514;52.206;5.114;2023-07-09T00:54:36;101775.31;;;27.20;56.60
64886;BME280;51514;52.206;5.114;2023-07-09T00:57:16;101777.84;;;27.79;54.74
64886;BME280;51514;52.206;5.114;2023-07-09T00:59:47;101774.16;;;27.90;53.85
64886;BME280;51514;52.206;5.114;2023-07-09T01:02:14;101777.75;;;27.90;54.06
64886;BME280;51514;52.206;5.114;2023-07-09T01:04:40;101772.47;;;27.89;54.49
64886;BME280;51514;52.206;5.114;2023-07-09T01:07:06;101771.94;;;27.75;54.64
64886;BME280;51514;52.206;5.114;2023-07-09T01:09:31;101770.94;;;27.81;54.88
64886;BME280;51514;52.206;5.114;2023-07-09T01:12:02;101773.47;;;27.83;54.58
64886;BME280;51514;52.206;5.114;2023-07-09T01:14:29;101775.38;;;27.82;54.54
64886;BME280;51514;52.206;5.114;2023-07-09T01:17:00;101769.59;;;27.84;54.04
64886;BME280;51514;52.206;5.114;2023-07-09T01:19:29;101776.56;;;27.86;53.54
64886;BME280;51514;52.206;5.114;2023-07-09T01:22:00;101781.34;;;27.91;53.32
64886;BME280;51514;52.206;5.114;2023-07-09T01:24:48;101780.13;;;27.98;53.62
64886;BME280;51514;52.206;5.114;2023-07-09T01:27:16;101781.38;;;28.08;53.34
64886;BME280;51514;52.206;5.114;2023-07-09T01:29:43;101773.31;;;27.89;53.67
64886;BME280;51514;52.206;5.114;2023-07-09T01:32:09;101770.09;;;27.81;53.62
64886;BME280;51514;52.206;5.114;2023-07-09T01:34:35;101777.72;;;27.74;54.19
64886;BME280;51514;52.206;5.114;2023-07-09T01:37:00;101777.00;;;27.21;55.58
64886;BME280;51514;52.206;5.114;2023-07-09T01:39:26;101785.44;;;26.28;58.08
64886;BME280;51514;52.206;5.114;2023-07-09T01:41:54;101782.25;;;26.13;59.22
64886;BME280;51514;52.206;5.114;2023-07-09T01:44:20;101777.56;;;26.02;60.05
64886;BME280;51514;52.206;5.114;2023-07-09T01:46:45;101779.72;;;26.00;60.30
64886;BME280;51514;52.206;5.114;2023-07-09T01:49:11;101782.47;;;25.88;60.51
64886;BME280;51514;52.206;5.114;2023-07-09T01:51:36;101778.53;;;25.96;60.45
64886;BME280;51514;52.206;5.114;2023-07-09T01:54:03;101782.84;;;25.92;60.33
64886;BME280;51514;52.206;5.114;2023-07-09T01:56:28;101791.47;;;25.84;60.61
64886;BME280;51514;52.206;5.114;2023-07-09T01:58:54;101789.56;;;25.84;60.53
64886;BME280;51514;52.206;5.114;2023-07-09T02:01:28;101795.44;;;25.88;60.22
64886;BME280;51514;52.206;5.114;2023-07-09T02:03:54;101797.25;;;25.82;60.82
64886;BME280;51514;52.206;5.114;2023-07-09T02:06:19;101808.16;;;25.77;60.94
64886;BME280;51514;52.206;5.114;2023-07-09T02:08:45;101788.91;;;25.70;60.91
64886;BME280;51514;52.206;5.114;2023-07-09T02:11:11;101795.06;;;25.72;61.03
64886;BME280;51514;52.206;5.114;2023-07-09T02:13:36;101790.00;;;25.69;61.34
64886;BME280;51514;52.206;5.114;2023-07-09T02:16:01;101786.00;;;25.65;61.37
64886;BME280;51514;52.206;5.114;2023-07-09T02:18:28;101787.09;;;25.64;61.69
64886;BME280;51514;52.206;5.114;2023-07-09T02:20:53;101793.22;;;25.66;61.26
64886;BME280;51514;52.206;5.114;2023-07-09T02:23:19;101791.75;;;25.64;61.33
64886;BME280;51514;52.206;5.114;2023-07-09T02:25:44;101786.63;;;25.67;61.23
64886;BME280;51514;52.206;5.114;2023-07-09T02:28:10;101789.53;;;25.72;60.99
64886;BME280;51514;52.206;5.114;2023-07-09T02:30:35;101791.78;;;25.75;61.13
64886;BME280;51514;52.206;5.114;2023-07-09T02:33:00;101798.97;;;25.65;61.63
64886;BME280;51514;52.206;5.114;2023-07-09T02:35:26;101794.69;;;25.69;61.29
64886;BME280;51514;52.206;5.114;2023-07-09T02:37:51;101791.75;;;25.64;61.22
64886;BME280;51514;52.206;5.114;2023-07-09T02:40:17;101785.44;;;25.63;61.27
64886;BME280;51514;52.206;5.114;2023-07-09T02:42:42;101780.47;;;25.65;61.50
64886;BME280;51514;52.206;5.114;2023-07-09T02:45:08;101776.03;;;25.64;61.17
64886;BME280;51514;52.206;5.114;2023-07-09T02:47:33;101795.03;;;25.61;61.42
64886;BME280;51514;52.206;5.114;2023-07-09T02:49:59;101782.91;;;25.62;61.39
64886;BME280;51514;52.206;5.114;2023-07-09T02:52:24;101786.25;;;25.64;61.28
64886;BME280;51514;52.206;5.114;2023-07-09T02:54:50;101793.09;;;25.61;61.52
64886;BME280;51514;52.206;5.114;2023-07-09T02:57:16;101782.91;;;25.62;61.85
64886;BME280;51514;52.206;5.114;2023-07-09T02:59:41;101788.31;;;25.68;61.67
64886;BME280;51514;52.206;5.114;2023-07-09T03:02:07;101792.59;;;25.64;61.72
64886;BME280;51514;52.206;5.114;2023-07-09T03:04:32;101787.94;;;25.65;61.96
64886;BME280;51514;52.206;5.114;2023-07-09T03:06:58;101794.78;;;25.62;62.10
64886;BME280;51514;52.206;5.114;2023-07-09T03:09:25;101790.63;;;25.53;62.60
64886;BME280;51514;52.206;5.114;2023-07-09T03:11:50;101790.63;;;25.53;62.39
64886;BME280;51514;52.206;5.114;2023-07-09T03:14:16;101791.69;;;25.70;61.47
64886;BME280;51514;52.206;5.114;2023-07-09T03:16:42;101796.69;;;25.43;62.51
64886;BME280;51514;52.206;5.114;2023-07-09T03:19:07;101794.78;;;25.62;61.40
64886;BME280;51514;52.206;5.114;2023-07-09T03:21:33;101793.81;;;25.38;62.42
64886;BME280;51514;52.206;5.114;2023-07-09T03:23:59;101793.38;;;25.41;62.55
64886;BME280;51514;52.206;5.114;2023-07-09T03:26:24;101796.69;;;25.43;62.43
64886;BME280;51514;52.206;5.114;2023-07-09T03:28:50;101800.81;;;25.41;62.47
64886;BME280;51514;52.206;5.114;2023-07-09T03:31:16;101795.56;;;25.33;62.87
64886;BME280;51514;52.206;5.114;2023-07-09T03:33:41;101793.88;;;25.32;63.07
64886;BME280;51514;52.206;5.114;2023-07-09T03:36:07;101793.03;;;25.31;63.06
64886;BME280;51514;52.206;5.114;2023-07-09T03:38:32;101797.75;;;25.31;62.93
64886;BME280;51514;52.206;5.114;2023-07-09T03:40:58;101796.06;;;25.30;62.77
64886;BME280;51514;52.206;5.114;2023-07-09T03:43:23;101799.91;;;25.29;63.30
64886;BME280;51514;52.206;5.114;2023-07-09T03:45:50;101799.50;;;25.25;63.14
64886;BME280;51514;52.206;5.114;2023-07-09T03:48:17;101803.13;;;25.26;63.27
64886;BME280;51514;52.206;5.114;2023-07-09T03:50:45;101804.94;;;25.32;63.26
64886;BME280;51514;52.206;5.114;2023-07-09T03:53:11;101810.75;;;25.42;62.34
64886;BME280;51514;52.206;5.114;2023-07-09T03:55:36;101814.31;;;25.31;62.88
64886;BME280;51514;52.206;5.114;2023-07-09T03:58:03;101813.00;;;25.33;62.72
64886;BME280;51514;52.206;5.114;2023-07-09T04:00:29;101814.38;;;25.24;63.08
64886;BME280;51514;52.206;5.114;2023-07-09T04:02:54;101820.75;;;25.25;62.87
64886;BME280;51514;52.206;5.114;2023-07-09T04:05:22;101822.28;;;25.21;63.01
64886;BME280;51514;52.206;5.114;2023-07-09T04:07:48;101816.53;;;25.22;63.07
64886;BME280;51514;52.206;5.114;2023-07-09T04:10:13;101818.44;;;25.22;63.16
64886;BME280;51514;52.206;5.114;2023-07-09T04:12:39;101818.91;;;25.37;62.66
64886;BME280;51514;52.206;5.114;2023-07-09T04:15:04;101819.22;;;25.29;62.63
64886;BME280;51514;52.206;5.114;2023-07-09T04:17:31;101823.75;;;25.23;62.96
64886;BME280;51514;52.206;5.114;2023-07-09T04:19:56;101822.06;;;25.22;62.93
64886;BME280;51514;52.206;5.114;2023-07-09T04:22:22;101827.97;;;25.26;63.15
64886;BME280;51514;52.206;5.114;2023-07-09T04:24:47;101824.13;;;25.27;63.06
64886;BME280;51514;52.206;5.114;2023-07-09T04:27:12;101829.03;;;25.25;63.12
64886;BME280;51514;52.206;5.114;2023-07-09T04:29:39;101833.31;;;25.21;63.40
64886;BME280;51514;52.206;5.114;2023-07-09T04:32:06;101825.03;;;25.21;63.76
64886;BME280;51514;52.206;5.114;2023-07-09T04:34:32;101820.75;;;25.25;63.79
64886;BME280;51514;52.206;5.114;2023-07-09T04:36:57;101825.72;;;25.34;63.58
64886;BME280;51514;52.206;5.114;2023-07-09T04:39:22;101823.41;;;25.31;63.72
64886;BME280;51514;52.206;5.114;2023-07-09T04:41:48;101827.81;;;25.21;64.53
64886;BME280;51514;52.206;5.114;2023-07-09T04:44:13;101826.28;;;25.25;64.50
64886;BME280;51514;52.206;5.114;2023-07-09T04:46:39;101822.28;;;25.21;64.97
64886;BME280;51514;52.206;5.114;2023-07-09T04:49:04;101818.69;;;25.20;64.33
64886;BME280;51514;52.206;5.114;2023-07-09T04:51:30;101816.41;;;25.17;63.88
64886;BME280;51514;52.206;5.114;2023-07-09T04:53:55;101822.91;;;25.23;63.95
64886;BME280;51514;52.206;5.114;2023-07-09T04:56:21;101820.53;;;25.26;64.32
64886;BME280;51514;52.206;5.114;2023-07-09T04:58:46;101816.59;;;25.34;64.59
64886;BME280;51514;52.206;5.114;2023-07-09T05:01:11;101810.38;;;25.38;64.91
64886;BME280;51514;52.206;5.114;2023-07-09T05:03:37;101810.75;;;25.42;65.43
64886;BME280;51514;52.206;5.114;2023-07-09T05:06:04;101808.13;;;25.47;65.69
64886;BME280;51514;52.206;5.114;2023-07-09T05:08:29;101806.59;;;25.51;65.67
64886;BME280;51514;52.206;5.114;2023-07-09T05:10:56;101810.09;;;25.58;65.98
64886;BME280;51514;52.206;5.114;2023-07-09T05:13:22;101811.59;;;25.61;66.21
64886;BME280;51514;52.206;5.114;2023-07-09T05:15:48;101806.25;;;25.59;66.56
64886;BME280;51514;52.206;5.114;2023-07-09T05:18:15;101806.97;;;25.55;66.63
64886;BME280;51514;52.206;5.114;2023-07-09T05:20:41;101807.34;;;25.58;66.35
64886;BME280;51514;52.206;5.114;2023-07-09T05:23:08;101800.91;;;25.64;67.35
64886;BME280;51514;52.206;5.114;2023-07-09T05:25:33;101807.19;;;25.71;68.06
64886;BME280;51514;52.206;5.114;2023-07-09T05:27:59;101799.00;;;25.76;68.34
64886;BME280;51514;52.206;5.114;2023-07-09T05:30:25;101803.22;;;25.79;68.08
64886;BME280;51514;52.206;5.114;2023-07-09T05:32:51;101800.97;;;25.88;67.53
64886;BME280;51514;52.206;5.114;2023-07-09T05:35:18;101800.50;;;25.91;67.36
64886;BME280;51514;52.206;5.114;2023-07-09T05:37:44;101799.06;;;26.00;67.24
64886;BME280;51514;52.206;5.114;2023-07-09T05:40:09;101804.25;;;26.08;67.22
64886;BME280;51514;52.206;5.114;2023-07-09T05:42:35;101798.72;;;26.19;67.15
64886;BME280;51514;52.206;5.114;2023-07-09T05:45:00;101802.47;;;26.25;67.32
64886;BME280;51514;52.206;5.114;2023-07-09T05:47:26;101814.41;;;26.37;67.11
64886;BME280;51514;52.206;5.114;2023-07-09T05:49:52;101808.28;;;26.47;66.79
64886;BME280;51514;52.206;5.114;2023-07-09T05:52:22;101822.13;;;26.59;66.78
64886;BME280;51514;52.206;5.114;2023-07-09T05:54:51;101819.69;;;26.62;66.82
64886;BME280;51514;52.206;5.114;2023-07-09T05:57:17;101811.88;;;26.71;66.84
64886;BME280;51514;52.206;5.114;2023-07-09T05:59:43;101816.19;;;26.78;67.27
64886;BME280;51514;52.206;5.114;2023-07-09T06:02:13;101817.88;;;26.91;67.04
64886;BME280;51514;52.206;5.114;2023-07-09T06:04:39;101814.63;;;26.94;65.83
64886;BME280;51514;52.206;5.114;2023-07-09T06:07:04;101823.06;;;26.99;65.95
64886;BME280;51514;52.206;5.114;2023-07-09T06:09:30;101822.41;;;27.09;65.15
64886;BME280;51514;52.206;5.114;2023-07-09T06:11:57;101819.75;;;27.25;65.56
64886;BME280;51514;52.206;5.114;2023-07-09T06:14:22;101825.38;;;27.31;65.60
64886;BME280;51514;52.206;5.114;2023-07-09T06:16:47;101830.03;;;27.42;65.25
64886;BME280;51514;52.206;5.114;2023-07-09T06:19:13;101835.31;;;27.43;64.13
64886;BME280;51514;52.206;5.114;2023-07-09T06:21:39;101832.06;;;27.58;63.60
64886;BME280;51514;52.206;5.114;2023-07-09T06:24:05;101837.31;;;27.59;63.71
64886;BME280;51514;52.206;5.114;2023-07-09T06:26:31;101836.19;;;27.72;63.00
64886;BME280;51514;52.206;5.114;2023-07-09T06:28:56;101841.84;;;27.94;62.32
64886;BME280;51514;52.206;5.114;2023-07-09T06:31:22;101841.50;;;28.19;61.33
64886;BME280;51514;52.206;5.114;2023-07-09T06:33:49;101844.69;;;28.44;59.62
64886;BME280;51514;52.206;5.114;2023-07-09T06:36:14;101841.63;;;28.62;58.94
64886;BME280;51514;52.206;5.114;2023-07-09T06:38:40;101852.97;;;28.78;59.26
64886;BME280;51514;52.206;5.114;2023-07-09T06:41:05;101843.13;;;28.87;59.92
64886;BME280;51514;52.206;5.114;2023-07-09T06:43:31;101856.38;;;29.01;59.93
64886;BME280;51514;52.206;5.114;2023-07-09T06:45:59;101849.84;;;29.13;59.68
64886;BME280;51514;52.206;5.114;2023-07-09T06:48:26;101854.53;;;29.29;59.32
64886;BME280;51514;52.206;5.114;2023-07-09T06:50:53;101854.13;;;29.42;59.00
64886;BME280;51514;52.206;5.114;2023-07-09T06:53:20;101851.22;;;29.54;58.37
64886;BME280;51514;52.206;5.114;2023-07-09T06:55:46;101852.16;;;29.64;58.34
64886;BME280;51514;52.206;5.114;2023-07-09T06:58:11;101854.41;;;29.62;56.52
64886;BME280;51514;52.206;5.114;2023-07-09T07:00:37;101857.72;;;29.64;58.72
64886;BME280;51514;52.206;5.114;2023-07-09T07:03:03;101863.13;;;29.76;58.25
64886;BME280;51514;52.206;5.114;2023-07-09T07:05:29;101863.56;;;29.90;57.88
64886;BME280;51514;52.206;5.114;2023-07-09T07:07:56;101863.38;;;29.96;56.79
64886;BME280;51514;52.206;5.114;2023-07-09T07:10:21;101859.88;;;30.06;57.23
64886;BME280;51514;52.206;5.114;2023-07-09T07:12:48;101858.91;;;30.22;57.53
64886;BME280;51514;52.206;5.114;2023-07-09T07:15:16;101864.22;;;30.29;58.21
64886;BME280;51514;52.206;5.114;2023-07-09T07:17:42;101865.38;;;30.33;58.23
64886;BME280;51514;52.206;5.114;2023-07-09T07:20:09;101868.22;;;30.38;58.94
64886;BME280;51514;52.206;5.114;2023-07-09T07:22:36;101871.88;;;30.43;57.59
64886;BME280;51514;52.206;5.114;2023-07-09T07:25:02;101872.72;;;30.44;57.32
64886;BME280;51514;52.206;5.114;2023-07-09T07:27:28;101874.25;;;30.62;56.78
64886;BME280;51514;52.206;5.114;2023-07-09T07:29:53;101873.81;;;30.75;56.05
64886;BME280;51514;52.206;5.114;2023-07-09T07:32:19;101866.59;;;30.79;55.64
64886;BME280;51514;52.206;5.114;2023-07-09T07:34:46;101867.97;;;30.76;56.04
64886;BME280;51514;52.206;5.114;2023-07-09T07:37:12;101871.59;;;30.77;56.09
64886;BME280;51514;52.206;5.114;2023-07-09T07:39:37;101872.97;;;30.74;55.00
64886;BME280;51514;52.206;5.114;2023-07-09T07:42:03;101877.16;;;30.77;54.70
64886;BME280;51514;52.206;5.114;2023-07-09T07:44:28;101882.41;;;30.73;54.19
64886;BME280;51514;52.206;5.114;2023-07-09T07:46:53;101876.25;;;30.66;54.22
64886;BME280;51514;52.206;5.114;2023-07-09T07:49:19;101876.56;;;30.70;55.15
64886;BME280;51514;52.206;5.114;2023-07-09T07:51:44;101873.53;;;30.76;53.97
64886;BME280;51514;52.206;5.114;2023-07-09T07:54:09;101871.63;;;30.82;53.72
64886;BME280;51514;52.206;5.114;2023-07-09T07:56:36;101869.44;;;30.89;52.83
64886;BME280;51514;52.206;5.114;2023-07-09T07:59:02;101865.06;;;31.03;52.18
64886;BME280;51514;52.206;5.114;2023-07-09T08:01:28;101868.25;;;31.22;51.49
64886;BME280;51514;52.206;5.114;2023-07-09T08:03:53;101875.50;;;31.23;51.68
64886;BME280;51514;52.206;5.114;2023-07-09T08:06:19;101859.41;;;31.40;52.23
64886;BME280;51514;52.206;5.114;2023-07-09T08:08:45;101871.41;;;31.46;51.99
64886;BME280;51514;52.206;5.114;2023-07-09T08:11:10;101866.38;;;31.43;52.26
64886;BME280;51514;52.206;5.114;2023-07-09T08:13:37;101865.56;;;31.47;51.32
64886;BME280;51514;52.206;5.114;2023-07-09T08:16:04;101868.94;;;31.60;52.47
64886;BME280;51514;52.206;5.114;2023-07-09T08:18:30;101865.03;;;31.61;52.42
64886;BME280;51514;52.206;5.114;2023-07-09T08:20:55;101864.25;;;31.65;51.37
64886;BME280;51514;52.206;5.114;2023-07-09T08:23:21;101869.41;;;32.44;48.67
64886;BME280;51514;52.206;5.114;2023-07-09T08:26:04;101862.34;;;31.86;49.32
64886;BME280;51514;52.206;5.114;2023-07-09T08:28:30;101860.66;;;31.75;49.86
64886;BME280;51514;52.206;5.114;2023-07-09T08:30:56;101860.66;;;31.75;49.74
64886;BME280;51514;52.206;5.114;2023-07-09T08:33:22;101853.59;;;31.57;50.51
64886;BME280;51514;52.206;5.114;2023-07-09T08:35:50;101852.00;;;31.66;49.58
64886;BME280;51514;52.206;5.114;2023-07-09T08:38:16;101860.09;;;31.68;50.18
64886;BME280;51514;52.206;5.114;2023-07-09T08:40:59;101864.28;;;31.75;50.37
64886;BME280;51514;52.206;5.114;2023-07-09T08:48:35;101854.78;;;31.76;48.28
64886;BME280;51514;52.206;5.114;2023-07-09T08:51:10;101853.38;;;31.74;45.77
64886;BME280;51514;52.206;5.114;2023-07-09T08:53:54;101852.31;;;31.80;46.59
64886;BME280;51514;52.206;5.114;2023-07-09T08:56:22;101852.81;;;31.72;46.10
64886;BME280;51514;52.206;5.114;2023-07-09T08:58:49;101854.44;;;31.63;45.17
64886;BME280;51514;52.206;5.114;2023-07-09T09:01:17;101844.94;;;31.58;45.49
64886;BME280;51514;52.206;5.114;2023-07-09T09:03:49;101845.25;;;31.57;44.63
64886;BME280;51514;52.206;5.114;2023-07-09T09:06:26;101852.00;;;31.76;44.80
64886;BME280;51514;52.206;5.114;2023-07-09T09:09:03;101848.94;;;31.83;45.01
64886;BME280;51514;52.206;5.114;2023-07-09T09:14:33;101851.19;;;32.06;45.71
64886;BME280;51514;52.206;5.114;2023-07-09T09:16:59;101845.94;;;32.30;44.82
64886;BME280;51514;52.206;5.114;2023-07-09T09:19:32;101846.19;;;32.59;45.19
64886;BME280;51514;52.206;5.114;2023-07-09T09:22:09;101844.44;;;32.98;44.09
64886;BME280;51514;52.206;5.114;2023-07-09T09:24:41;101834.84;;;33.30;43.48
64886;BME280;51514;52.206;5.114;2023-07-09T09:27:11;101840.13;;;33.21;43.02
64886;BME280;51514;52.206;5.114;2023-07-09T09:29:36;101830.16;;;33.00;42.89
64886;BME280;51514;52.206;5.114;2023-07-09T09:32:20;101818.78;;;32.86;44.04
64886;BME280;51514;52.206;5.114;2023-07-09T09:34:47;101819.66;;;32.77;45.38
64886;BME280;51514;52.206;5.114;2023-07-09T09:37:23;101816.25;;;32.70;45.60
64886;BME280;51514;52.206;5.114;2023-07-09T09:39:49;101829.72;;;32.73;44.12
64886;BME280;51514;52.206;5.114;2023-07-09T09:42:14;101832.22;;;32.74;43.65
64886;BME280;51514;52.206;5.114;2023-07-09T09:44:44;101829.44;;;32.74;43.41
64886;BME280;51514;52.206;5.114;2023-07-09T09:47:10;101831.09;;;32.75;43.58
64886;BME280;51514;52.206;5.114;2023-07-09T09:49:43;101823.56;;;32.71;43.28
64886;BME280;51514;52.206;5.114;2023-07-09T09:52:17;101827.44;;;32.80;45.10
64886;BME280;51514;52.206;5.114;2023-07-09T09:54:54;101823.25;;;32.87;44.15
64886;BME280;51514;52.206;5.114;2023-07-09T09:57:23;101821.22;;;33.03;42.74
64886;BME280;51514;52.206;5.114;2023-07-09T09:59:50;101828.75;;;33.08;43.09
64886;BME280;51514;52.206;5.114;2023-07-09T10:02:21;101820.25;;;33.33;43.82
64886;BME280;51514;52.206;5.114;2023-07-09T10:04:47;101823.28;;;33.47;44.11
64886;BME280;51514;52.206;5.114;2023-07-09T10:07:34;101821.53;;;34.00;42.57
64886;BME280;51514;52.206;5.114;2023-07-09T10:10:04;101822.63;;;34.67;42.16
64886;BME280;51514;52.206;5.114;2023-07-09T10:12:50;101832.56;;;36.06;39.66
64886;BME280;51514;52.206;5.114;2023-07-09T10:17:43;101832.19;;;37.18;37.41
64886;BME280;51514;52.206;5.114;2023-07-09T10:25:46;101842.84;;;37.57;34.88
64886;BME280;51514;52.206;5.114;2023-07-09T10:39:02;101840.19;;;39.52;31.97
64886;BME280;51514;52.206;5.114;2023-07-09T10:41:30;101839.53;;;40.41;31.64
64886;BME280;51514;52.206;5.114;2023-07-09T10:43:58;101835.19;;;40.99;30.92
64886;BME280;51514;52.206;5.114;2023-07-09T10:46:28;101834.28;;;41.36;29.74
64886;BME280;51514;52.206;5.114;2023-07-09T10:48:56;101832.41;;;41.70;28.99
64886;BME280;51514;52.206;5.114;2023-07-09T10:51:30;101823.13;;;41.81;29.17
64886;BME280;51514;52.206;5.114;2023-07-09T10:56:38;101800.84;;;39.98;31.84
64886;BME280;51514;52.206;5.114;2023-07-09T10:59:41;101817.03;;;38.76;34.23
64886;BME280;51514;52.206;5.114;2023-07-09T11:02:18;101813.53;;;37.72;35.71
64886;BME280;51514;52.206;5.114;2023-07-09T11:04:56;101818.72;;;36.74;37.60
64886;BME280;51514;52.206;5.114;2023-07-09T11:07:27;101839.78;;;36.12;38.31
64886;BME280;51514;52.206;5.114;2023-07-09T11:09:58;101837.56;;;35.53;39.36
64886;BME280;51514;52.206;5.114;2023-07-09T11:12:29;101835.41;;;35.02;39.21
64886;BME280;51514;52.206;5.114;2023-07-09T11:15:20;101842.69;;;34.79;39.39
64886;BME280;51514;52.206;5.114;2023-07-09T11:17:48;101845.72;;;34.54;39.36
64886;BME280;51514;52.206;5.114;2023-07-09T11:20:21;101833.28;;;34.36;38.60
64886;BME280;51514;52.206;5.114;2023-07-09T11:22:54;101828.09;;;34.19;37.83
64886;BME280;51514;52.206;5.114;2023-07-09T11:25:45;101813.03;;;34.10;38.83
64886;BME280;51514;52.206;5.114;2023-07-09T11:28:12;101809.19;;;34.06;39.94
64886;BME280;51514;52.206;5.114;2023-07-09T11:33:33;101818.88;;;33.85;37.98
64886;BME280;51514;52.206;5.114;2023-07-09T11:36:11;101810.78;;;33.78;37.55
64886;BME280;51514;52.206;5.114;2023-07-09T11:38:44;101817.25;;;33.68;37.28
64886;BME280;51514;52.206;5.114;2023-07-09T11:43:50;101830.75;;;33.56;38.18
64886;BME280;51514;52.206;5.114;2023-07-09T11:46:24;101827.66;;;33.63;38.20
64886;BME280;51514;52.206;5.114;2023-07-09T11:48:54;101825.72;;;33.58;37.34
64886;BME280;51514;52.206;5.114;2023-07-09T11:51:37;101828.00;;;33.51;37.49
64886;BME280;51514;52.206;5.114;2023-07-09T11:54:04;101831.34;;;33.53;37.29
64886;BME280;51514;52.206;5.114;2023-07-09T11:56:29;101835.53;;;33.56;39.05
64886;BME280;51514;52.206;5.114;2023-07-09T11:58:56;101845.88;;;33.55;39.62
64886;BME280;51514;52.206;5.114;2023-07-09T12:01:25;101851.44;;;33.60;39.84
64886;BME280;51514;52.206;5.114;2023-07-09T12:03:52;101851.13;;;33.67;39.49
64886;BME280;51514;52.206;5.114;2023-07-09T12:06:27;101862.56;;;33.76;39.36
64886;BME280;51514;52.206;5.114;2023-07-09T12:08:53;101863.09;;;33.83;39.46
64886;BME280;51514;52.206;5.114;2023-07-09T12:11:28;101870.59;;;33.87;38.08
64886;BME280;51514;52.206;5.114;2023-07-09T12:13:54;101867.22;;;33.95;39.09
64886;BME280;51514;52.206;5.114;2023-07-09T12:18:48;101869.69;;;33.97;40.26
64886;BME280;51514;52.206;5.114;2023-07-09T12:21:14;101877.00;;;33.93;40.21
64886;BME280;51514;52.206;5.114;2023-07-09T12:23:40;101876.97;;;33.98;40.16
64886;BME280;51514;52.206;5.114;2023-07-09T12:26:10;101872.53;;;33.92;40.12
64886;BME280;51514;52.206;5.114;2023-07-09T12:28:36;101877.38;;;33.81;39.70
64886;BME280;51514;52.206;5.114;2023-07-09T12:31:02;101894.50;;;33.75;40.73
64886;BME280;51514;52.206;5.114;2023-07-09T12:33:27;101895.09;;;33.61;40.38
64886;BME280;51514;52.206;5.114;2023-07-09T12:36:03;101913.34;;;33.44;40.49
64886;BME280;51514;52.206;5.114;2023-07-09T12:38:39;101917.28;;;33.32;39.08
64886;BME280;51514;52.206;5.114;2023-07-09T12:41:06;101910.34;;;33.30;40.57
64886;BME280;51514;52.206;5.114;2023-07-09T12:43:41;101900.78;;;33.41;41.94
64886;BME280;51514;52.206;5.114;2023-07-09T12:46:06;101890.66;;;33.50;42.46
64886;BME280;51514;52.206;5.114;2023-07-09T12:48:32;101881.94;;;33.57;41.37
64886;BME280;51514;52.206;5.114;2023-07-09T12:50:59;101875.22;;;33.63;41.46
64886;BME280;51514;52.206;5.114;2023-07-09T12:53:26;101884.47;;;33.53;41.18
64886;BME280;51514;52.206;5.114;2023-07-09T12:55:55;101889.66;;;33.31;42.03
64886;BME280;51514;52.206;5.114;2023-07-09T12:58:23;101882.66;;;33.28;41.84
64886;BME280;51514;52.206;5.114;2023-07-09T13:00:51;101881.25;;;33.26;41.98
64886;BME280;51514;52.206;5.114;2023-07-09T13:03:19;101877.91;;;33.19;42.07
64886;BME280;51514;52.206;5.114;2023-07-09T13:05:54;101870.34;;;33.29;42.76
64886;BME280;51514;52.206;5.114;2023-07-09T13:08:20;101863.03;;;33.33;42.39
64886;BME280;51514;52.206;5.114;2023-07-09T13:10:46;101868.34;;;33.35;42.21
64886;BME280;51514;52.206;5.114;2023-07-09T13:13:15;101884.28;;;33.34;41.30
64886;BME280;51514;52.206;5.114;2023-07-09T13:15:43;101871.72;;;33.37;41.86
64886;BME280;51514;52.206;5.114;2023-07-09T13:18:11;101874.50;;;33.32;42.81
64886;BME280;51514;52.206;5.114;2023-07-09T13:20:38;101886.28;;;33.24;42.72
64886;BME280;51514;52.206;5.114;2023-07-09T13:23:09;101893.00;;;33.28;42.35
64886;BME280;51514;52.206;5.114;2023-07-09T13:25:34;101897.22;;;33.10;42.54
64886;BME280;51514;52.206;5.114;2023-07-09T13:28:01;101895.63;;;32.84;43.38
64886;BME280;51514;52.206;5.114;2023-07-09T13:30:26;101903.75;;;32.75;43.20
64886;BME280;51514;52.206;5.114;2023-07-09T13:32:52;101910.69;;;32.62;44.21
64886;BME280;51514;52.206;5.114;2023-07-09T13:35:18;101912.66;;;32.52;44.20
64886;BME280;51514;52.206;5.114;2023-07-09T13:37:47;101918.22;;;32.26;44.66
64886;BME280;51514;52.206;5.114;2023-07-09T13:40:14;101909.31;;;32.19;44.89